Time;durP1;ratioP1;P1;durP2;ratioP2;P2;SDS_P1;SDS_P2;PMS_P1;PMS_P2;Temp;Humidity;BMP_temperature;BMP_pressure;BME280_temperature;BME280_humidity;BME280_pressure;Samples;Min_cycle;Max_cycle;Signal;HPM_P1;HPM_P2
2023/08/02 00:00:51;;;;;;;1.23;1.10;;;16.90;99.90;;;;;;5114461;28;20022;-65
2023/08/02 00:03:22;;;;;;;1.27;1.10;;;17.00;99.90;;;;;;5136013;28;20033;-65
2023/08/02 00:05:56;;;;;;;0.75;0.75;;;17.00;99.90;;;;;;5137925;28;20197;-65
2023/08/02 00:08:28;;;;;;;1.10;1.00;;;17.00;99.90;;;;;;5146606;28;20041;-66
2023/08/02 00:11:00;;;;;;;1.23;1.13;;;17.00;99.90;;;;;;5166276;28;20041;-65
2023/08/02 00:13:31;;;;;;;1.20;1.10;;;17.00;99.90;;;;;;5136321;28;20042;-63
2023/08/02 00:16:04;;;;;;;1.10;1.00;;;17.00;99.90;;;;;;5134679;28;21116;-62
2023/08/02 00:18:35;;;;;;;1.20;1.10;;;17.00;99.90;;;;;;5146588;28;20044;-64
2023/08/02 00:21:06;;;;;;;0.90;0.90;;;17.20;99.90;;;;;;5140653;28;20039;-63
2023/08/02 00:23:38;;;;;;;1.08;0.98;;;17.20;99.90;;;;;;5158422;28;20052;-62
2023/08/02 00:26:09;;;;;;;1.38;1.00;;;17.10;99.90;;;;;;5140479;28;20044;-64
2023/08/02 00:28:40;;;;;;;0.90;0.90;;;17.10;99.90;;;;;;5155988;28;20509;-62
2023/08/02 00:31:12;;;;;;;0.88;0.88;;;17.20;99.90;;;;;;5131391;28;20043;-63
2023/08/02 00:33:45;;;;;;;0.90;0.90;;;17.10;99.90;;;;;;5134687;28;20052;-65
2023/08/02 00:36:16;;;;;;;1.10;1.00;;;17.10;99.90;;;;;;5136674;28;20043;-64
2023/08/02 00:38:49;;;;;;;1.00;1.00;;;17.10;99.90;;;;;;5136835;28;20039;-62
2023/08/02 00:41:20;;;;;;;2.13;1.10;;;17.10;99.90;;;;;;5115832;28;20035;-65
2023/08/02 00:43:51;;;;;;;1.15;1.05;;;17.20;99.90;;;;;;5148648;28;20040;-65
2023/08/02 00:46:26;;;;;;;1.48;1.08;;;17.10;99.90;;;;;;5133663;28;20038;-64
2023/08/02 00:48:58;;;;;;;1.38;1.27;;;17.10;99.90;;;;;;5172184;28;20053;-65
2023/08/02 00:51:33;;;;;;;1.20;1.05;;;17.00;99.90;;;;;;5159296;28;20043;-64
2023/08/02 00:54:05;;;;;;;1.00;1.00;;;16.90;99.90;;;;;;5135176;28;20034;-63
2023/08/02 00:56:40;;;;;;;1.35;1.25;;;16.90;99.90;;;;;;5119732;28;20046;-64
2023/08/02 00:59:16;;;;;;;1.20;1.10;;;16.90;99.90;;;;;;5146028;28;20022;-65
2023/08/02 01:01:53;;;;;;;1.05;0.98;;;16.90;99.90;;;;;;5182172;23;20114;-69
2023/08/02 01:04:28;;;;;;;1.23;1.00;;;16.90;99.90;;;;;;5155326;28;20042;-68
2023/08/02 01:07:05;;;;;;;1.02;1.00;;;17.00;99.90;;;;;;5155154;28;20046;-68
2023/08/02 01:09:47;;;;;;;1.20;1.10;;;17.00;99.90;;;;;;5166743;28;20334;-67
2023/08/02 01:12:24;;;;;;;1.23;1.10;;;17.00;99.90;;;;;;5172178;28;20050;-66
2023/08/02 01:14:58;;;;;;;1.10;1.00;;;17.30;41.10;;;;;;5154749;28;20033;-67
2023/08/02 01:17:30;;;;;;;0.93;0.93;;;17.30;40.70;;;;;;5169558;28;20056;-65
2023/08/02 01:20:08;;;;;;;0.90;0.90;;;17.30;73.40;;;;;;5154997;28;20034;-67
2023/08/02 01:22:45;;;;;;;1.23;1.13;;;17.30;80.30;;;;;;5150321;28;20039;-67
2023/08/02 01:25:19;;;;;;;2.40;0.93;;;17.20;95.80;;;;;;5136777;28;20033;-65
2023/08/02 01:27:56;;;;;;;;;;;17.20;83.00;;;;;;5151506;28;20048;-65
2023/08/02 01:30:38;;;;;;;1.00;0.90;;;17.40;1.00;;;;;;5154645;28;21010;-67
2023/08/02 01:33:10;;;;;;;0.90;0.90;;;17.40;18.20;;;;;;5162278;28;20347;-66
2023/08/02 01:35:41;;;;;;;1.83;1.20;;;17.40;6.60;;;;;;5171129;28;20044;-67
2023/08/02 01:38:13;;;;;;;2.90;0.90;;;17.40;1.00;;;;;;5154786;28;20043;-66
2023/08/02 01:40:46;;;;;;;1.58;1.27;;;17.40;13.10;;;;;;5153899;28;20339;-66
2023/08/02 01:43:18;;;;;;;1.05;1.05;;;17.50;1.00;;;;;;5135221;28;20044;-66
2023/08/02 01:45:51;;;;;;;1.20;1.10;;;17.50;1.00;;;;;;5147571;28;20041;-66
2023/08/02 01:48:23;;;;;;;1.17;1.08;;;17.40;5.10;;;;;;5151250;28;20038;-68
2023/08/02 01:50:58;;;;;;;1.10;0.90;;;17.30;38.30;;;;;;5118247;28;20038;-67
2023/08/02 01:53:32;;;;;;;0.90;0.90;;;17.10;99.90;;;;;;5152711;28;20242;-67
2023/08/02 01:56:03;;;;;;;2.10;1.20;;;17.10;80.60;;;;;;5132803;28;20536;-67
2023/08/02 01:58:42;;;;;;;0.93;0.93;;;17.10;83.90;;;;;;5132753;28;20045;-66
2023/08/02 02:04:00;;;;;;;2.50;1.08;;;17.00;99.90;;;;;;5302322;27;20395;-68
2023/08/02 02:06:32;;;;;;;;;;;17.00;99.90;;;;;;5242348;28;20047;-65
2023/08/02 02:09:05;;;;;;;1.73;1.10;;;16.90;99.90;;;;;;5277782;28;19908;-66
2023/08/02 02:11:37;;;;;;;1.30;1.10;;;16.80;99.90;;;;;;5263662;28;20058;-66
2023/08/02 02:14:10;;;;;;;1.20;1.10;;;16.70;99.90;;;;;;5222478;28;20044;-68
2023/08/02 02:16:45;;;;;;;1.00;0.90;;;16.70;99.90;;;;;;5220925;28;20573;-65
2023/08/02 02:19:18;;;;;;;;;;;16.70;99.90;;;;;;5240254;28;20518;-67
2023/08/02 02:21:56;;;;;;;0.98;0.90;;;16.70;99.90;;;;;;5242998;28;19920;-65
2023/08/02 02:24:33;;;;;;;1.50;1.40;;;16.70;99.90;;;;;;5259791;28;20069;-67
2023/08/02 02:27:07;;;;;;;0.95;0.90;;;16.80;95.90;;;;;;5260482;28;20518;-67
2023/08/02 02:29:39;;;;;;;;;;;16.70;99.90;;;;;;5276886;28;20043;-66
2023/08/02 02:32:12;;;;;;;1.10;1.00;;;16.60;99.90;;;;;;5252991;28;19908;-66
2023/08/02 02:34:44;;;;;;;1.23;1.13;;;16.50;99.90;;;;;;5239061;28;20058;-68
2023/08/02 02:37:18;;;;;;;1.00;0.90;;;16.40;99.90;;;;;;5222695;28;20044;-66
2023/08/02 02:39:50;;;;;;;2.88;1.25;;;16.30;99.90;;;;;;5205628;28;20054;-65
2023/08/02 02:42:25;;;;;;;1.02;1.00;;;16.50;99.90;;;;;;5227717;28;20542;-67
2023/08/02 02:44:59;;;;;;;0.75;0.75;;;16.50;50.90;;;;;;5229398;28;20050;-66
2023/08/02 02:47:35;;;;;;;1.85;1.13;;;16.50;7.70;;;;;;5240764;28;20048;-65
2023/08/02 02:50:08;;;;;;;1.40;1.30;;;16.50;20.40;;;;;;5250201;28;20051;-62
2023/08/02 02:52:59;;;;;;;0.80;0.80;;;16.60;1.00;;;;;;5259458;28;20038;-68
2023/08/02 02:55:30;;;;;;;0.80;0.80;;;16.50;1.00;;;;;;5255425;28;20035;-65
2023/08/02 02:58:06;;;;;;;0.90;0.90;;;16.60;1.00;;;;;;5261334;28;20363;-68
2023/08/02 03:00:41;;;;;;;1.10;1.00;;;16.50;1.00;;;;;;5261167;28;20041;-66
2023/08/02 03:03:12;;;;;;;1.10;1.00;;;16.40;39.10;;;;;;5249501;28;20044;-66
2023/08/02 03:05:44;;;;;;;1.33;1.10;;;16.40;20.60;;;;;;5253546;28;20036;-67
2023/08/02 03:08:19;;;;;;;2.30;0.93;;;16.40;21.60;;;;;;5243724;28;20028;-68
2023/08/02 03:10:51;;;;;;;1.20;1.10;;;16.50;1.00;;;;;;5270736;28;20594;-67
2023/08/02 03:13:27;;;;;;;0.98;0.90;;;16.50;1.00;;;;;;5255606;28;20336;-64
2023/08/02 03:16:07;;;;;;;1.08;0.90;;;16.60;1.00;;;;;;5188783;28;20143;-67
2023/08/02 03:18:38;;;;;;;1.30;1.20;;;16.80;1.00;;;;;;5225593;28;20498;-66
2023/08/02 03:21:15;;;;;;;1.08;1.00;;;16.70;1.00;;;;;;5258792;28;20042;-67
2023/08/02 03:23:50;;;;;;;1.23;1.10;;;16.80;1.00;;;;;;5221301;28;20052;-67
2023/08/02 03:26:23;;;;;;;0.98;0.98;;;16.70;1.00;;;;;;5209451;28;20048;-68
2023/08/02 03:29:00;;;;;;;1.35;0.95;;;16.60;1.00;;;;;;5244728;28;20050;-65
2023/08/02 03:31:32;;;;;;;0.90;0.90;;;16.60;1.00;;;;;;5241879;28;20051;-67
2023/08/02 03:34:04;;;;;;;1.25;1.00;;;16.50;41.30;;;;;;5191588;28;20056;-67
2023/08/02 03:36:44;;;;;;;0.85;0.80;;;16.30;99.90;;;;;;5212517;28;20055;-64
2023/08/02 03:39:20;;;;;;;3.40;0.93;;;16.10;99.90;;;;;;5229058;28;20039;-67
2023/08/02 03:42:02;;;;;;;1.15;1.02;;;16.00;99.90;;;;;;5207215;28;20438;-66
2023/08/02 03:44:33;;;;;;;1.20;1.10;;;15.80;99.90;;;;;;5224009;28;20065;-67
2023/08/02 03:47:08;;;;;;;2.15;1.00;;;15.80;99.90;;;;;;5208399;28;20036;-65
2023/08/02 03:49:41;;;;;;;1.13;1.00;;;15.70;99.90;;;;;;5210805;28;20530;-69
2023/08/02 03:52:14;;;;;;;1.42;1.00;;;15.70;99.90;;;;;;5219233;28;20141;-69
2023/08/02 03:54:49;;;;;;;1.35;1.17;;;15.70;99.90;;;;;;5222260;28;20059;-68
2023/08/02 03:57:20;;;;;;;0.98;0.98;;;15.70;99.90;;;;;;5194540;28;20051;-66
2023/08/02 03:59:57;;;;;;;1.10;1.00;;;15.70;99.90;;;;;;5234917;28;20044;-67
2023/08/02 04:02:28;;;;;;;1.20;1.10;;;15.80;99.90;;;;;;5218389;28;20037;-67
2023/08/02 04:05:05;;;;;;;1.38;1.23;;;15.80;99.90;;;;;;5252703;28;20046;-64
2023/08/02 04:07:43;;;;;;;1.42;1.13;;;15.90;99.90;;;;;;5210259;28;20036;-69
2023/08/02 04:10:14;;;;;;;1.20;1.08;;;16.00;99.90;;;;;;5245004;28;20046;-66
2023/08/02 04:12:45;;;;;;;1.27;1.17;;;16.10;99.90;;;;;;5223335;28;20075;-65
2023/08/02 04:15:17;;;;;;;1.30;1.20;;;16.10;99.90;;;;;;5221569;28;20028;-67
2023/08/02 04:17:51;;;;;;;1.30;1.20;;;16.20;99.90;;;;;;5206436;28;20044;-68
2023/08/02 04:20:25;;;;;;;3.28;1.40;;;16.30;99.90;;;;;;5206668;28;20367;-68
2023/08/02 04:23:02;;;;;;;1.67;1.10;;;16.50;99.90;;;;;;5194947;28;20044;-67
2023/08/02 04:25:36;;;;;;;1.33;1.23;;;16.60;99.90;;;;;;5210451;28;20377;-67
2023/08/02 04:28:16;;;;;;;1.10;1.00;;;16.70;99.90;;;;;;5243695;28;20046;-66
2023/08/02 04:30:55;;;;;;;1.17;0.98;;;16.70;99.90;;;;;;5243143;28;20024;-68
2023/08/02 04:33:29;;;;;;;1.33;1.10;;;16.90;1.00;;;;;;5243318;28;20115;-68
2023/08/02 04:36:06;;;;;;;2.05;1.23;;;17.20;1.00;;;;;;5226653;28;20036;-69
2023/08/02 04:38:38;;;;;;;1.35;0.98;;;17.30;1.00;;;;;;5243389;28;20036;-66
2023/08/02 04:41:15;;;;;;;1.35;1.10;;;17.40;1.00;;;;;;5244455;28;20040;-66
2023/08/02 04:43:52;;;;;;;1.38;1.27;;;17.60;1.00;;;;;;5218158;28;20056;-67
2023/08/02 04:46:28;;;;;;;1.42;1.33;;;17.80;1.00;;;;;;5189093;28;20062;-68
2023/08/02 04:48:59;;;;;;;1.10;0.98;;;18.00;1.00;;;;;;5190874;28;20054;-68
2023/08/02 04:51:36;;;;;;;1.08;1.08;;;18.20;1.00;;;;;;5224135;28;20031;-70
2023/08/02 04:54:08;;;;;;;0.82;0.82;;;18.40;1.00;;;;;;5219671;28;20525;-67
2023/08/02 04:56:39;;;;;;;1.10;1.00;;;18.60;1.00;;;;;;5207385;28;20040;-69
2023/08/02 04:59:13;;;;;;;1.17;1.08;;;18.80;1.00;;;;;;5206581;28;20052;-65
2023/08/02 05:01:48;;;;;;;2.28;1.23;;;18.70;1.00;;;;;;5234856;28;20058;-65
2023/08/02 05:04:19;;;;;;;1.05;0.98;;;18.70;1.00;;;;;;5208933;28;20048;-68
2023/08/02 05:06:54;;;;;;;0.90;0.90;;;18.80;1.00;;;;;;5243385;28;20369;-65
2023/08/02 05:09:25;;;;;;;1.23;1.13;;;19.10;1.00;;;;;;5209775;28;20341;-68
2023/08/02 05:12:00;;;;;;;1.38;1.27;;;19.20;99.90;;;;;;5225686;28;20503;-69
2023/08/02 05:14:34;;;;;;;1.08;0.98;;;19.30;99.90;;;;;;5222109;28;20044;-68
2023/08/02 05:17:11;;;;;;;1.13;1.02;;;19.30;99.90;;;;;;5222952;28;20040;-68
2023/08/02 05:19:49;;;;;;;1.23;1.08;;;19.30;99.90;;;;;;5226553;28;20040;-69
2023/08/02 05:22:23;;;;;;;1.67;1.08;;;19.50;99.90;;;;;;5226325;28;20043;-68
2023/08/02 05:24:57;;;;;;;2.03;1.17;;;19.50;99.90;;;;;;5214517;28;20040;-68
2023/08/02 05:27:34;;;;;;;3.05;1.67;;;19.50;99.90;;;;;;5239234;28;20047;-66
2023/08/02 05:30:10;;;;;;;1.63;1.20;;;19.50;99.90;;;;;;5207191;28;20339;-68
2023/08/02 05:32:47;;;;;;;1.90;1.15;;;19.70;99.90;;;;;;5229840;28;20344;-65
2023/08/02 05:35:23;;;;;;;1.20;1.10;;;19.80;1.00;;;;;;5230086;28;20040;-68
2023/08/02 05:37:55;;;;;;;1.30;1.20;;;19.90;1.00;;;;;;5220806;28;20041;-69
2023/08/02 05:40:27;;;;;;;1.38;1.27;;;20.00;1.00;;;;;;5249962;28;20108;-68
2023/08/02 05:42:59;;;;;;;0.90;0.90;;;20.10;99.90;;;;;;5189402;28;20122;-69
2023/08/02 05:45:36;;;;;;;1.80;1.35;;;20.30;46.90;;;;;;5221650;28;20052;-67
2023/08/02 05:48:11;;;;;;;1.17;0.90;;;20.60;1.00;;;;;;5221523;28;20041;-67
2023/08/02 05:50:43;;;;;;;0.90;0.90;;;20.60;1.00;;;;;;5223335;28;20048;-67
2023/08/02 05:53:14;;;;;;;2.05;1.00;;;20.90;1.00;;;;;;5187615;28;20048;-67
2023/08/02 05:55:54;;;;;;;0.95;0.88;;;21.60;1.00;;;;;;5235415;28;20042;-71
2023/08/02 05:58:26;;;;;;;1.20;1.10;;;21.40;99.90;;;;;;5241503;28;20069;-67
2023/08/02 06:01:00;;;;;;;1.45;1.05;;;21.30;99.90;;;;;;5222363;28;20032;-70
2023/08/02 06:03:32;;;;;;;2.03;0.75;;;21.80;1.00;;;;;;5200869;28;20041;-69
2023/08/02 06:06:06;;;;;;;0.95;0.80;;;22.20;99.90;;;;;;5194973;28;20040;-69
2023/08/02 06:08:37;;;;;;;1.77;1.17;;;22.50;99.90;;;;;;5207054;28;20260;-70
2023/08/02 06:11:10;;;;;;;1.55;1.20;;;22.30;1.00;;;;;;5241971;28;20032;-66
2023/08/02 06:13:43;;;;;;;1.08;0.90;;;22.50;1.00;;;;;;5219108;28;20052;-66
2023/08/02 06:16:20;;;;;;;2.58;1.13;;;22.60;99.90;;;;;;5203189;28;20076;-70
2023/08/02 06:18:51;;;;;;;1.33;1.23;;;22.20;1.00;;;;;;5198619;28;20048;-69
2023/08/02 06:21:23;;;;;;;4.40;1.20;;;21.80;1.00;;;;;;5223993;28;20526;-67
2023/08/02 06:23:56;;;;;;;1.30;1.20;;;21.90;1.00;;;;;;5203501;28;20048;-68
2023/08/02 06:26:31;;;;;;;1.73;1.00;;;22.10;1.00;;;;;;5223386;28;20036;-70
2023/08/02 06:29:08;;;;;;;1.02;0.98;;;22.40;1.00;;;;;;5226032;28;20059;-68
2023/08/02 06:31:39;;;;;;;2.03;1.10;;;22.60;99.90;;;;;;5235253;28;20681;-67
2023/08/02 06:34:11;;;;;;;0.95;0.95;;;23.60;1.00;;;;;;5229796;28;20040;-70
2023/08/02 06:36:48;;;;;;;1.50;1.25;;;23.90;1.00;;;;;;5238977;28;20036;-67
2023/08/02 06:39:20;;;;;;;1.05;1.02;;;24.80;1.00;;;;;;5223308;28;20137;-69
2023/08/02 06:41:54;;;;;;;1.10;1.02;;;24.80;99.90;;;;;;5220706;28;20461;-71
2023/08/02 06:44:26;;;;;;;0.90;0.90;;;24.60;99.90;;;;;;5195213;28;20032;-70
2023/08/02 06:46:57;;;;;;;1.10;1.00;;;24.90;1.00;;;;;;5195527;28;20048;-71
2023/08/02 06:49:29;;;;;;;1.30;1.20;;;24.40;1.00;;;;;;5222760;28;20469;-70
2023/08/02 06:52:00;;;;;;;1.27;1.02;;;24.40;1.00;;;;;;5200906;28;20044;-70
2023/08/02 06:54:39;;;;;;;1.35;0.90;;;24.60;1.00;;;;;;5203409;28;20550;-71
2023/08/02 06:57:16;;;;;;;1.05;1.00;;;24.50;1.00;;;;;;5220052;28;20041;-65
2023/08/02 06:59:55;;;;;;;2.45;0.73;;;24.90;1.00;;;;;;5229103;28;20048;-69
2023/08/02 07:02:29;;;;;;;1.70;0.80;;;24.90;99.00;;;;;;5205595;28;20059;-66
2023/08/02 07:05:00;;;;;;;1.20;1.10;;;25.30;99.90;;;;;;5220531;28;20404;-67
2023/08/02 07:07:34;;;;;;;3.78;1.27;;;25.60;99.90;;;;;;5232583;28;20055;-69
2023/08/02 07:10:06;;;;;;;1.13;1.10;;;26.30;99.90;;;;;;5222757;28;20044;-71
2023/08/02 07:12:39;;;;;;;1.20;0.90;;;26.80;84.60;;;;;;5211480;28;20571;-68
2023/08/02 07:15:12;;;;;;;1.55;1.15;;;26.70;1.00;;;;;;5225867;28;20047;-70
2023/08/02 07:17:45;;;;;;;1.30;1.10;;;25.70;1.00;;;;;;5239231;28;20049;-66
2023/08/02 07:20:19;;;;;;;1.30;1.20;;;25.70;1.00;;;;;;5226096;28;20051;-68
2023/08/02 07:22:52;;;;;;;1.30;0.90;;;25.20;99.90;;;;;;5211111;28;20048;-70
2023/08/02 07:25:27;;;;;;;1.00;0.90;;;25.20;1.00;;;;;;5205938;28;20047;-68
2023/08/02 07:27:58;;;;;;;2.22;1.00;;;25.80;99.90;;;;;;5219655;28;20057;-67
2023/08/02 07:30:32;;;;;;;1.20;1.10;;;25.80;99.90;;;;;;5254380;28;20312;-69
2023/08/02 07:33:05;;;;;;;0.80;0.80;;;25.70;99.90;;;;;;5241680;28;20052;-69
2023/08/02 07:35:37;;;;;;;1.17;1.08;;;25.70;99.90;;;;;;5230879;28;20020;-69
2023/08/02 07:38:08;;;;;;;1.40;1.00;;;25.60;99.90;;;;;;5210849;28;20036;-68
2023/08/02 07:40:43;;;;;;;0.88;0.88;;;25.50;99.90;;;;;;5209262;28;20214;-68
2023/08/02 07:43:14;;;;;;;3.80;1.02;;;25.80;1.00;;;;;;5204924;28;20047;-66
2023/08/02 07:45:48;;;;;;;1.38;1.00;;;26.30;99.90;;;;;;5203346;28;20047;-71
2023/08/02 07:48:19;;;;;;;1.20;1.10;;;26.80;99.90;;;;;;5219329;28;20131;-69
2023/08/02 07:50:51;;;;;;;1.23;1.13;;;27.30;1.00;;;;;;5223350;28;20266;-74
2023/08/02 07:53:26;;;;;;;1.05;1.00;;;27.30;99.90;;;;;;5194254;28;20303;-71
2023/08/02 07:56:05;;;;;;;0.90;0.90;;;26.90;1.00;;;;;;5241577;28;20043;-69
2023/08/02 07:58:42;;;;;;;1.23;1.10;;;26.80;1.00;;;;;;5209701;28;20282;-70
2023/08/02 08:01:13;;;;;;;3.42;1.70;;;27.20;99.90;;;;;;5242662;28;20111;-68
2023/08/02 08:03:45;;;;;;;0.88;0.82;;;27.10;94.20;;;;;;5236518;28;20258;-68
2023/08/02 08:06:20;;;;;;;1.20;1.10;;;25.70;1.00;;;;;;5261712;28;20343;-70
2023/08/02 08:08:52;;;;;;;0.85;0.85;;;25.30;1.00;;;;;;5243956;28;20054;-72
2023/08/02 08:11:28;;;;;;;2.05;1.17;;;25.70;99.90;;;;;;5205442;28;20039;-69
2023/08/02 08:13:59;;;;;;;1.00;0.90;;;25.20;99.90;;;;;;5233652;28;20079;-69
2023/08/02 08:16:31;;;;;;;0.93;0.90;;;25.10;1.00;;;;;;5221979;28;20040;-70
2023/08/02 08:19:02;;;;;;;1.83;0.98;;;24.30;1.00;;;;;;5210231;28;20066;-71
2023/08/02 08:21:34;;;;;;;0.90;0.90;;;24.50;99.90;;;;;;5259862;28;20331;-72
2023/08/02 08:24:06;;;;;;;2.00;0.90;;;25.20;99.90;;;;;;5260806;28;20040;-71
2023/08/02 08:26:38;;;;;;;1.17;1.08;;;25.10;99.90;;;;;;5225890;28;20219;-72
2023/08/02 08:29:10;;;;;;;0.90;0.90;;;24.80;99.90;;;;;;5240932;28;20217;-69
2023/08/02 08:31:46;;;;;;;1.30;1.20;;;25.20;99.90;;;;;;5210109;28;20036;-67
2023/08/02 08:34:18;;;;;;;1.00;0.90;;;25.50;99.90;;;;;;5223967;28;20174;-69
2023/08/02 08:36:54;;;;;;;1.30;1.17;;;25.40;98.30;;;;;;5222722;28;20036;-66
2023/08/02 08:39:28;;;;;;;1.20;1.10;;;25.30;1.00;;;;;;5222300;28;20032;-70
2023/08/02 08:41:59;;;;;;;1.35;1.25;;;25.30;99.90;;;;;;5187836;28;20367;-69
2023/08/02 08:44:31;;;;;;;1.95;1.73;;;26.00;35.20;;;;;;5239328;28;20020;-71
2023/08/02 08:47:09;;;;;;;1.63;1.27;;;26.80;77.60;;;;;;5236452;28;20037;-74
2023/08/02 08:49:40;;;;;;;1.20;1.10;;;27.30;99.90;;;;;;5221612;28;20036;-70
2023/08/02 08:52:14;;;;;;;2.83;1.20;;;28.00;99.90;;;;;;5238473;28;20126;-68
2023/08/02 08:54:51;;;;;;;1.13;1.08;;;27.70;1.00;;;;;;5204491;28;20050;-69
2023/08/02 08:57:25;;;;;;;0.75;0.70;;;27.60;99.90;;;;;;5236151;28;20366;-70
2023/08/02 09:00:11;;;;;;;;;;;27.50;4.80;;;;;;5221775;28;20285;-71
2023/08/02 09:02:43;;;;;;;;;;;27.80;99.90;;;;;;5209885;28;19912;-71
2023/08/02 09:05:27;;;;;;;1.20;1.10;;;27.90;99.90;;;;;;5238924;28;19912;-69
2023/08/02 09:08:00;;;;;;;1.92;1.10;;;28.60;1.00;;;;;;5222226;28;20043;-72
2023/08/02 09:10:38;;;;;;;1.50;1.10;;;28.90;1.00;;;;;;5221864;28;20037;-69
2023/08/02 09:13:33;;;;;;;0.80;0.70;;;28.60;1.00;;;;;;5188846;28;20055;-70
2023/08/02 09:16:17;;;;;;;0.82;0.82;;;28.90;1.00;;;;;;5235219;28;20044;-70
2023/08/02 09:18:49;;;;;;;1.20;0.95;;;28.40;99.90;;;;;;5219495;28;20041;-74
2023/08/02 09:21:22;;;;;;;0.80;0.80;;;28.20;1.00;;;;;;5222411;28;20043;-74
2023/08/02 09:24:04;;;;;;;3.80;0.90;;;28.80;99.90;;;;;;5224981;28;20232;-71
2023/08/02 09:26:35;;;;;;;1.30;0.90;;;29.90;99.90;;;;;;5241074;28;20395;-71
2023/08/02 09:29:09;;;;;;;1.10;1.00;;;30.20;31.20;;;;;;5229190;28;20042;-74
2023/08/02 09:31:41;;;;;;;1.08;0.90;;;30.70;1.00;;;;;;5239552;28;20122;-72
2023/08/02 09:34:14;;;;;;;1.23;0.95;;;30.70;1.00;;;;;;5219895;28;20050;-71
2023/08/02 09:36:45;;;;;;;1.40;1.00;;;30.30;1.00;;;;;;5199855;28;20036;-73
2023/08/02 09:39:20;;;;;;;1.30;1.08;;;30.20;1.00;;;;;;5238650;28;20046;-70
2023/08/02 09:41:52;;;;;;;1.40;0.93;;;30.10;1.00;;;;;;5202449;28;20047;-70
2023/08/02 09:44:23;;;;;;;1.23;1.00;;;30.30;99.90;;;;;;5237080;28;20225;-69
2023/08/02 09:47:12;;;;;;;1.00;0.90;;;29.10;16.30;;;;;;5239515;28;20212;-71
2023/08/02 09:50:04;;;;;;;0.90;0.80;;;29.30;71.20;;;;;;5246736;28;20032;-68
2023/08/02 09:52:43;;;;;;;1.42;1.00;;;30.30;99.90;;;;;;5237074;28;20036;-70
2023/08/02 09:55:20;;;;;;;1.42;1.08;;;30.20;99.90;;;;;;5194087;28;20198;-71
2023/08/02 09:57:52;;;;;;;1.17;0.90;;;29.70;1.00;;;;;;5238697;28;20058;-74
2023/08/02 10:00:25;;;;;;;0.80;0.80;;;29.70;1.00;;;;;;5234604;28;20189;-70
2023/08/02 10:02:57;;;;;;;0.95;0.90;;;29.20;1.00;;;;;;5197584;28;20044;-68
2023/08/02 10:05:29;;;;;;;1.30;0.93;;;29.50;1.00;;;;;;5204486;28;20039;-71
2023/08/02 10:08:05;;;;;;;1.40;0.90;;;29.00;1.00;;;;;;5193259;28;20044;-71
2023/08/02 10:10:43;;;;;;;3.13;1.00;;;28.20;99.90;;;;;;5210753;28;20042;-70
2023/08/02 10:13:24;;;;;;;1.20;1.10;;;28.70;99.90;;;;;;5226871;28;20074;-71
2023/08/02 10:16:00;;;;;;;0.85;0.82;;;29.50;1.00;;;;;;5220259;28;20414;-70
2023/08/02 10:18:34;;;;;;;3.10;0.88;;;29.80;1.00;;;;;;5235649;28;20043;-70
2023/08/02 10:21:08;;;;;;;;;;;28.80;1.00;;;;;;5225077;28;20044;-70
2023/08/02 10:23:43;;;;;;;1.20;1.10;;;29.20;1.00;;;;;;5243792;28;19916;-69
2023/08/02 10:26:17;;;;;;;1.20;0.88;;;29.00;1.00;;;;;;5228320;28;20051;-67
2023/08/02 10:28:49;;;;;;;3.00;1.17;;;29.40;99.90;;;;;;5232051;28;20032;-71
2023/08/02 10:31:23;;;;;;;1.35;1.00;;;29.80;99.90;;;;;;5241038;28;20044;-70
2023/08/02 10:34:04;;;;;;;1.25;0.90;;;29.50;1.00;;;;;;5235643;28;20044;-72
2023/08/02 10:36:57;;;;;;;1.13;1.00;;;29.60;1.00;;;;;;5225834;28;20031;-70
2023/08/02 10:39:47;;;;;;;1.00;0.90;;;30.30;1.00;;;;;;5193133;28;20042;-68
2023/08/02 10:42:22;;;;;;;0.95;0.85;;;31.00;99.90;;;;;;5208034;28;20043;-72
2023/08/02 10:44:54;;;;;;;0.82;0.77;;;31.60;1.00;;;;;;5248042;28;20040;-71
2023/08/02 10:47:30;;;;;;;0.73;0.70;;;31.50;99.90;;;;;;5221319;28;20036;-70
2023/08/02 10:50:04;;;;;;;0.80;0.80;;;30.80;1.00;;;;;;5210278;28;20038;-69
2023/08/02 10:52:38;;;;;;;;;;;31.10;1.00;;;;;;5211604;28;20407;-72
2023/08/02 10:55:20;;;;;;;1.33;1.10;;;30.70;1.00;;;;;;5262126;28;19930;-71
2023/08/02 10:57:55;;;;;;;1.05;0.90;;;30.80;1.00;;;;;;5229072;28;20047;-70
2023/08/02 11:00:31;;;;;;;0.70;0.65;;;32.10;1.00;;;;;;5254472;28;20252;-70
2023/08/02 11:03:03;;;;;;;0.82;0.75;;;32.70;1.00;;;;;;5210794;28;20197;-68
2023/08/02 11:05:47;;;;;;;1.13;0.80;;;32.50;1.00;;;;;;5211878;28;20032;-68
2023/08/02 11:08:19;;;;;;;0.70;0.70;;;31.30;1.00;;;;;;5245341;28;20030;-71
2023/08/02 11:10:55;;;;;;;1.55;1.10;;;31.50;1.00;;;;;;5262788;28;20054;-69
2023/08/02 11:13:40;;;;;;;0.70;0.70;;;31.40;1.00;;;;;;5227498;28;20063;-69
2023/08/02 11:16:14;;;;;;;0.80;0.80;;;31.20;99.90;;;;;;5204429;28;20075;-68
2023/08/02 11:18:45;;;;;;;0.70;0.70;;;31.60;49.50;;;;;;5207052;28;20043;-72
2023/08/02 11:21:17;;;;;;;0.80;0.80;;;32.10;99.90;;;;;;5210010;28;20036;-71
2023/08/02 11:23:49;;;;;;;1.25;1.15;;;32.00;99.90;;;;;;5226803;28;20032;-72
2023/08/02 11:26:23;;;;;;;1.00;0.90;;;33.20;99.90;;;;;;5261109;28;20162;-70
2023/08/02 11:29:00;;;;;;;0.75;0.75;;;31.90;42.50;;;;;;5209124;28;20043;-73
2023/08/02 11:31:36;;;;;;;2.15;0.80;;;32.40;65.10;;;;;;5228856;28;20051;-74
2023/08/02 11:34:18;;;;;;;0.52;0.52;;;32.30;26.70;;;;;;5222256;28;20044;-68
2023/08/02 11:36:50;;;;;;;0.70;0.70;;;32.80;1.00;;;;;;5243184;28;20047;-70
2023/08/02 11:39:23;;;;;;;1.25;0.95;;;31.70;40.60;;;;;;5244605;28;20028;-69
2023/08/02 11:42:04;;;;;;;0.50;0.50;;;32.40;99.90;;;;;;5261699;28;20032;-70
2023/08/02 11:44:36;;;;;;;0.60;0.60;;;33.70;99.90;;;;;;5259181;28;20078;-71
2023/08/02 11:47:11;;;;;;;0.63;0.63;;;33.30;99.90;;;;;;5234533;28;20465;-67
2023/08/02 11:49:59;;;;;;;0.80;0.80;;;32.90;1.00;;;;;;5230998;28;20051;-72
2023/08/02 11:52:33;;;;;;;0.70;0.70;;;32.10;1.00;;;;;;5244978;28;20048;-72
2023/08/02 11:55:05;;;;;;;0.88;0.68;;;31.90;1.00;;;;;;5218490;28;20048;-68
2023/08/02 11:57:40;;;;;;;0.93;0.77;;;32.20;1.00;;;;;;5195744;28;20033;-70
2023/08/02 12:00:13;;;;;;;0.70;0.68;;;32.80;1.00;;;;;;5205290;28;20040;-72
2023/08/02 12:02:46;;;;;;;2.83;0.93;;;33.40;1.00;;;;;;5242152;28;20051;-73
2023/08/02 12:05:22;;;;;;;0.68;0.52;;;33.60;1.00;;;;;;5192419;28;20379;-70
2023/08/02 12:08:12;;;;;;;0.70;0.70;;;32.70;1.00;;;;;;5222603;28;20051;-69
2023/08/02 12:10:47;;;;;;;0.65;0.63;;;32.70;1.00;;;;;;5213722;28;21518;-70
2023/08/02 12:13:18;;;;;;;2.15;0.75;;;33.00;1.00;;;;;;5210850;28;20040;-70
2023/08/02 12:16:10;;;;;;;0.70;0.70;;;32.10;1.00;;;;;;5231556;28;20051;-70
2023/08/02 12:18:58;;;;;;;0.70;0.70;;;31.70;1.00;;;;;;5230953;28;20400;-73
2023/08/02 12:21:30;;;;;;;0.88;0.82;;;32.80;1.00;;;;;;5218482;28;20040;-69
2023/08/02 12:24:17;;;;;;;1.02;0.70;;;31.50;1.00;;;;;;5206025;28;20357;-70
2023/08/02 12:26:54;;;;;;;1.52;0.93;;;29.80;99.90;;;;;;5211161;28;20552;-72
2023/08/02 12:29:26;;;;;;;0.63;0.60;;;29.40;1.00;;;;;;5208470;28;20557;-69
2023/08/02 12:31:58;;;;;;;1.05;0.70;;;29.20;99.90;;;;;;5254077;28;20028;-70
2023/08/02 12:34:29;;;;;;;0.80;0.80;;;29.10;99.90;;;;;;5262760;28;20044;-73
2023/08/02 12:37:03;;;;;;;0.70;0.70;;;28.50;99.90;;;;;;5241434;28;20285;-72
2023/08/02 12:39:38;;;;;;;1.42;1.27;;;28.60;68.70;;;;;;5235893;28;20040;-69
2023/08/02 12:42:10;;;;;;;0.95;0.80;;;28.90;34.80;;;;;;5224649;28;20040;-72
2023/08/02 12:44:47;;;;;;;0.70;0.70;;;29.30;99.90;;;;;;5237789;28;20048;-67
2023/08/02 12:47:21;;;;;;;0.85;0.65;;;29.70;99.90;;;;;;5198215;28;20051;-70
2023/08/02 12:49:56;;;;;;;0.65;0.65;;;29.50;99.90;;;;;;5211971;28;20047;-72
2023/08/02 12:52:30;;;;;;;1.23;0.70;;;28.90;10.60;;;;;;5208633;28;20051;-69
2023/08/02 12:55:03;;;;;;;1.38;0.85;;;28.40;1.00;;;;;;5244341;28;20054;-70
2023/08/02 12:57:37;;;;;;;0.90;0.80;;;28.70;86.90;;;;;;5229983;28;20035;-69
2023/08/02 13:00:11;;;;;;;;;;;30.50;99.90;;;;;;5226203;28;20040;-71
2023/08/02 13:02:43;;;;;;;0.80;0.80;;;32.00;99.90;;;;;;5262658;28;19934;-69
2023/08/02 13:05:17;;;;;;;1.00;0.70;;;32.10;99.90;;;;;;5204674;28;20048;-70
2023/08/02 13:07:50;;;;;;;0.80;0.63;;;30.70;99.90;;;;;;5198948;28;20052;-70
2023/08/02 13:10:24;;;;;;;0.95;0.73;;;31.20;1.00;;;;;;5220211;28;20047;-72
2023/08/02 13:12:56;;;;;;;2.42;0.60;;;32.00;99.90;;;;;;5199058;28;20048;-67
2023/08/02 13:15:27;;;;;;;0.55;0.55;;;32.90;1.00;;;;;;5244512;28;20028;-69
2023/08/02 13:17:59;;;;;;;1.17;0.68;;;32.80;99.90;;;;;;5238988;28;20242;-69
2023/08/02 13:20:31;;;;;;;1.27;0.95;;;33.10;99.90;;;;;;5238865;28;20570;-67
2023/08/02 13:23:03;;;;;;;0.68;0.68;;;32.90;99.90;;;;;;5213579;28;20055;-69
2023/08/02 13:25:38;;;;;;;0.90;0.70;;;33.20;99.90;;;;;;5258631;28;20019;-71
2023/08/02 13:28:14;;;;;;;1.10;1.00;;;33.60;99.90;;;;;;5267920;28;20023;-72
2023/08/02 13:30:45;;;;;;;0.88;0.88;;;32.80;1.00;;;;;;5207346;28;20036;-73
2023/08/02 13:33:16;;;;;;;0.98;0.63;;;33.00;1.00;;;;;;5248575;28;20043;-71